LPR6 EPKX-EPKX
Flight info
| Callsign | LPR6 |
|---|---|
| Flight time | 0h 25m |
| Altitude | 2000 |
| Route | DCT |
| Aircraft | EC35/L-VGD/A |
Departure
| Time | 2026-04-23 18:05 |
|---|---|
| Airport | Kokotowie LPR HEMS Heliport (EPKX) |
Arrival
| Time | 2026-04-23 18:30 |
|---|---|
| Airport | Kokotowie LPR HEMS Heliport (EPKX) |
| Time | Latitude | Longitude | Altitude | Speed | Heading |
|---|---|---|---|---|---|
| 2026-04-23 17:54 | 50.02241 | 20.07031 | 655 ft | 0 kts | 152° |
| 2026-04-23 18:03 | 50.02239 | 20.07035 | 659 ft | 1 kts | 155° |
| 2026-04-23 18:03 | 50.02244 | 20.07039 | 681 ft | 2 kts | 160° |
| 2026-04-23 18:04 | 50.02256 | 20.07055 | 697 ft | 4 kts | 162° |
| 2026-04-23 18:04 | 50.02279 | 20.07088 | 748 ft | 18 kts | 44° |
| 2026-04-23 18:04 | 50.02441 | 20.06972 | 903 ft | 47 kts | 310° |
| 2026-04-23 18:04 | 50.02680 | 20.06410 | 1076 ft | 73 kts | 302° |
| 2026-04-23 18:05 | 50.02949 | 20.05673 | 1289 ft | 81 kts | 298° |
| 2026-04-23 18:05 | 50.03232 | 20.04882 | 1444 ft | 86 kts | 299° |
| 2026-04-23 18:05 | 50.03511 | 20.04028 | 1397 ft | 104 kts | 298° |
| 2026-04-23 18:05 | 50.03826 | 20.03056 | 1501 ft | 96 kts | 298° |
| 2026-04-23 18:06 | 50.04125 | 20.02141 | 1624 ft | 93 kts | 298° |
| 2026-04-23 18:06 | 50.04411 | 20.01248 | 1686 ft | 96 kts | 299° |
| 2026-04-23 18:06 | 50.04714 | 20.00277 | 1675 ft | 99 kts | 297° |
| 2026-04-23 18:06 | 50.05020 | 19.99304 | 1677 ft | 101 kts | 298° |
| 2026-04-23 18:07 | 50.05323 | 19.98323 | 1672 ft | 101 kts | 297° |
| 2026-04-23 18:07 | 50.05637 | 19.97330 | 1675 ft | 102 kts | 298° |
| 2026-04-23 18:07 | 50.05953 | 19.96340 | 1684 ft | 102 kts | 298° |
| 2026-04-23 18:07 | 50.06269 | 19.95338 | 1662 ft | 104 kts | 298° |
| 2026-04-23 18:08 | 50.06483 | 19.94670 | 1671 ft | 104 kts | 298° |
| 2026-04-23 18:08 | 50.06913 | 19.93308 | 1673 ft | 105 kts | 298° |
| 2026-04-23 18:08 | 50.07233 | 19.92285 | 1668 ft | 105 kts | 297° |
| 2026-04-23 18:08 | 50.07554 | 19.91259 | 1687 ft | 106 kts | 298° |
| 2026-04-23 18:09 | 50.07887 | 19.90188 | 1666 ft | 110 kts | 299° |
| 2026-04-23 18:09 | 50.08227 | 19.89117 | 1666 ft | 110 kts | 298° |
| 2026-04-23 18:09 | 50.08571 | 19.88056 | 1670 ft | 110 kts | 298° |
| 2026-04-23 18:09 | 50.08918 | 19.86991 | 1670 ft | 110 kts | 298° |
| 2026-04-23 18:10 | 50.09244 | 19.85908 | 1670 ft | 110 kts | 294° |
| 2026-04-23 18:10 | 50.09522 | 19.84798 | 1662 ft | 111 kts | 294° |
| 2026-04-23 18:10 | 50.09796 | 19.83666 | 1671 ft | 111 kts | 292° |
| 2026-04-23 18:10 | 50.10068 | 19.82541 | 1672 ft | 112 kts | 294° |
| 2026-04-23 18:11 | 50.10339 | 19.81395 | 1671 ft | 113 kts | 293° |
| 2026-04-23 18:11 | 50.10607 | 19.80254 | 1671 ft | 112 kts | 294° |
| 2026-04-23 18:11 | 50.10877 | 19.79102 | 1666 ft | 112 kts | 292° |
| 2026-04-23 18:11 | 50.11142 | 19.77975 | 1666 ft | 111 kts | 294° |
| 2026-04-23 18:12 | 50.11404 | 19.76844 | 1655 ft | 112 kts | 293° |
| 2026-04-23 18:12 | 50.11671 | 19.75704 | 1675 ft | 110 kts | 293° |
| 2026-04-23 18:12 | 50.11940 | 19.74582 | 1679 ft | 112 kts | 293° |
| 2026-04-23 18:12 | 50.12210 | 19.73446 | 1667 ft | 112 kts | 292° |
| 2026-04-23 18:13 | 50.12428 | 19.72259 | 1663 ft | 113 kts | 288° |
| 2026-04-23 18:13 | 50.12622 | 19.71080 | 1670 ft | 113 kts | 288° |
| 2026-04-23 18:13 | 50.12817 | 19.69890 | 1663 ft | 113 kts | 288° |
| 2026-04-23 18:13 | 50.13007 | 19.68714 | 1578 ft | 109 kts | 287° |
| 2026-04-23 18:14 | 50.13139 | 19.67709 | 1643 ft | 89 kts | 276° |
| 2026-04-23 18:14 | 50.13129 | 19.66823 | 1636 ft | 73 kts | 271° |
| 2026-04-23 18:14 | 50.13099 | 19.66119 | 1535 ft | 55 kts | 270° |
| 2026-04-23 18:14 | 50.13077 | 19.65527 | 1373 ft | 52 kts | 270° |
| 2026-04-23 18:15 | 50.13061 | 19.64973 | 1194 ft | 50 kts | 269° |
| 2026-04-23 18:15 | 50.13076 | 19.64495 | 1055 ft | 38 kts | 273° |
| 2026-04-23 18:15 | 50.13089 | 19.64111 | 1002 ft | 32 kts | 275° |
| 2026-04-23 18:15 | 50.13095 | 19.63872 | 934 ft | 11 kts | 277° |
| 2026-04-23 18:16 | 50.13101 | 19.63769 | 886 ft | 7 kts | 285° |
| 2026-04-23 18:16 | 50.13106 | 19.63722 | 864 ft | 3 kts | 285° |
| 2026-04-23 18:16 | 50.13109 | 19.63695 | 845 ft | 1 kts | 284° |
| 2026-04-23 18:23 | 50.13108 | 19.63699 | 849 ft | 2 kts | 282° |
| 2026-04-23 18:24 | 50.13087 | 19.63841 | 957 ft | 6 kts | 271° |
| 2026-04-23 18:24 | 50.12978 | 19.64037 | 1059 ft | 50 kts | 100° |
| 2026-04-23 18:24 | 50.12867 | 19.64756 | 1311 ft | 85 kts | 94° |
| 2026-04-23 18:25 | 50.12440 | 19.66813 | 1832 ft | 125 kts | 101° |
| 2026-04-23 18:25 | 50.12166 | 19.68202 | 1858 ft | 140 kts | 99° |
| 2026-04-23 18:25 | 50.11886 | 19.69699 | 1856 ft | 148 kts | 100° |
| 2026-04-23 18:25 | 50.11599 | 19.71261 | 1846 ft | 151 kts | 99° |
| 2026-04-23 18:26 | 50.11313 | 19.72846 | 1851 ft | 154 kts | 99° |
| 2026-04-23 18:26 | 50.11028 | 19.74475 | 1842 ft | 155 kts | 99° |
| 2026-04-23 18:26 | 50.10749 | 19.76085 | 1825 ft | 155 kts | 99° |
| 2026-04-23 18:26 | 50.10473 | 19.77690 | 1842 ft | 151 kts | 99° |
| 2026-04-23 18:27 | 50.10200 | 19.79276 | 1841 ft | 151 kts | 98° |
| 2026-04-23 18:27 | 50.09925 | 19.80857 | 1851 ft | 151 kts | 99° |
| 2026-04-23 18:27 | 50.09657 | 19.82451 | 1838 ft | 153 kts | 98° |
| 2026-04-23 18:27 | 50.09392 | 19.84000 | 1836 ft | 153 kts | 98° |
| 2026-04-23 18:28 | 50.09113 | 19.85590 | 1828 ft | 153 kts | 98° |
| 2026-04-23 18:28 | 50.08837 | 19.87135 | 1868 ft | 140 kts | 97° |
| 2026-04-23 18:28 | 50.08639 | 19.88511 | 1834 ft | 122 kts | 88° |
| 2026-04-23 18:28 | 50.08503 | 19.89689 | 1676 ft | 102 kts | 79° |
| 2026-04-23 18:29 | 50.08479 | 19.90721 | 1460 ft | 90 kts | 74° |
| 2026-04-23 18:29 | 50.08476 | 19.91657 | 1327 ft | 81 kts | 73° |
| 2026-04-23 18:29 | 50.08548 | 19.92437 | 1247 ft | 70 kts | 45° |
| 2026-04-23 18:29 | 50.08843 | 19.93020 | 1113 ft | 70 kts | 24° |
| 2026-04-23 18:30 | 50.09183 | 19.93496 | 981 ft | 59 kts | 45° |
| 2026-04-23 18:30 | 50.09273 | 19.94076 | 982 ft | 58 kts | 100° |
| 2026-04-23 18:30 | 50.09060 | 19.94292 | 973 ft | 30 kts | 272° |
| 2026-04-23 18:30 | 50.09123 | 19.93937 | 910 ft | 27 kts | 256° |
| 2026-04-23 18:31 | 50.09126 | 19.93763 | 843 ft | 11 kts | 263° |
| 2026-04-23 18:31 | 50.09119 | 19.93707 | 803 ft | 1 kts | 269° |
| 2026-04-23 18:31 | 50.09116 | 19.93685 | 798 ft | 2 kts | 263° |
| 2026-04-23 18:31 | 50.09113 | 19.93671 | 787 ft | 0 kts | 266° |
| 2026-04-23 18:37 | 50.09112 | 19.93694 | 806 ft | 7 kts | 265° |
| 2026-04-23 18:37 | 50.09101 | 19.93733 | 854 ft | 5 kts | 240° |
| 2026-04-23 18:38 | 50.08942 | 19.93816 | 962 ft | 47 kts | 171° |
| 2026-04-23 18:38 | 50.08507 | 19.94270 | 1092 ft | 97 kts | 138° |
| 2026-04-23 18:38 | 50.07970 | 19.95052 | 1232 ft | 114 kts | 131° |
| 2026-04-23 18:38 | 50.07429 | 19.96004 | 1397 ft | 119 kts | 128° |
| 2026-04-23 18:39 | 50.06882 | 19.97042 | 1476 ft | 128 kts | 127° |
| 2026-04-23 18:39 | 50.06266 | 19.98052 | 1559 ft | 129 kts | 127° |
| 2026-04-23 18:39 | 50.05638 | 19.99083 | 1606 ft | 133 kts | 129° |
| 2026-04-23 18:39 | 50.05041 | 20.00165 | 1623 ft | 135 kts | 123° |
| 2026-04-23 18:40 | 50.04513 | 20.01379 | 1641 ft | 132 kts | 114° |
| 2026-04-23 18:40 | 50.04044 | 20.02606 | 1602 ft | 135 kts | 110° |
| 2026-04-23 18:40 | 50.03732 | 20.03959 | 1586 ft | 131 kts | 92° |
| 2026-04-23 18:40 | 50.03525 | 20.05280 | 1415 ft | 125 kts | 97° |
| 2026-04-23 18:41 | 50.03057 | 20.06289 | 1062 ft | 109 kts | 126° |
| 2026-04-23 18:41 | 50.02527 | 20.06826 | 826 ft | 74 kts | 138° |
| 2026-04-23 18:41 | 50.02286 | 20.07163 | 751 ft | 22 kts | 38° |
| 2026-04-23 18:41 | 50.02315 | 20.07162 | 700 ft | 22 kts | 262° |
| 2026-04-23 18:42 | 50.02263 | 20.07001 | 664 ft | 3 kts | 169° |
| 2026-04-23 18:42 | 50.02243 | 20.07028 | 654 ft | 0 kts | 148° |